createdAt,value
2022-10-31T00:01:29.033Z,74.52
2022-10-31T00:03:57.376Z,74.51
2022-10-31T00:06:25.961Z,74.50
2022-10-31T00:08:59.670Z,74.96
2022-10-31T00:11:28.612Z,74.71
2022-10-31T00:13:58.101Z,74.93
2022-10-31T00:16:27.974Z,74.88
2022-10-31T00:18:58.378Z,75.14
2022-10-31T00:21:27.222Z,74.78
2022-10-31T00:23:55.521Z,75.34
2022-10-31T00:26:24.782Z,75.22
2022-10-31T00:28:52.928Z,75.28
2022-10-31T00:31:23.812Z,74.97
2022-10-31T00:34:00.204Z,74.78
2022-10-31T00:36:28.717Z,74.63
2022-10-31T00:39:01.221Z,74.91
2022-10-31T00:41:30.747Z,74.44
2022-10-31T00:44:03.645Z,74.32
2022-10-31T00:46:32.095Z,74.53
2022-10-31T00:49:00.168Z,74.66
2022-10-31T00:51:28.535Z,75.15
2022-10-31T00:53:56.516Z,75.03
2022-10-31T00:56:24.810Z,74.74
2022-10-31T00:58:56.850Z,75.10
2022-10-31T01:01:25.129Z,75.00
2022-10-31T01:03:57.414Z,75.50
2022-10-31T01:06:25.434Z,75.72
2022-10-31T01:08:57.044Z,75.40
2022-10-31T01:11:28.565Z,75.53
2022-10-31T01:13:57.904Z,75.57
2022-10-31T01:16:28.041Z,75.91
2022-10-31T01:18:58.347Z,75.94
2022-10-31T01:21:30.677Z,76.07
2022-10-31T01:24:03.001Z,75.50
2022-10-31T01:26:32.463Z,75.51
2022-10-31T01:29:03.180Z,76.11
2022-10-31T01:31:36.539Z,75.83
2022-10-31T01:34:05.013Z,75.64
2022-10-31T01:36:34.717Z,75.71
2022-10-31T01:39:05.305Z,76.00
2022-10-31T01:41:39.503Z,76.30
2022-10-31T01:44:43.175Z,76.44
2022-10-31T01:47:17.653Z,76.48
2022-10-31T01:49:55.341Z,76.21
2022-10-31T01:52:27.465Z,76.90
2022-10-31T01:55:03.066Z,76.66
2022-10-31T01:57:33.443Z,76.35
2022-10-31T02:00:04.293Z,76.65
2022-10-31T02:02:43.064Z,77.04
2022-10-31T02:05:24.993Z,76.65
2022-10-31T02:07:58.241Z,77.24
2022-10-31T02:10:32.629Z,77.29
2022-10-31T02:13:04.016Z,77.15
2022-10-31T02:15:34.073Z,77.37
2022-10-31T02:18:03.627Z,77.04
2022-10-31T02:20:35.164Z,77.62
2022-10-31T02:23:41.665Z,77.26
2022-10-31T02:26:34.812Z,77.49
2022-10-31T02:29:38.529Z,77.52
2022-10-31T02:32:13.381Z,77.75
2022-10-31T02:34:52.757Z,77.55
2022-10-31T02:37:27.868Z,78.12
2022-10-31T02:40:04.532Z,77.71
2022-10-31T02:43:07.484Z,77.85
2022-10-31T02:45:41.257Z,78.24
2022-10-31T02:48:14.371Z,77.87
2022-10-31T02:50:45.398Z,79.10
2022-10-31T02:53:18.394Z,78.38
2022-10-31T02:55:56.965Z,78.42
2022-10-31T02:58:28.076Z,78.47
2022-10-31T03:01:24.131Z,78.39
2022-10-31T03:04:07.926Z,78.41
2022-10-31T03:06:43.106Z,78.71
2022-10-31T03:09:20.102Z,78.58
2022-10-31T03:11:55.131Z,78.58
2022-10-31T03:14:30.371Z,78.58
2022-10-31T03:17:04.146Z,78.48
2022-10-31T03:19:44.019Z,78.47
2022-10-31T03:22:18.768Z,78.67
2022-10-31T03:24:48.806Z,78.90
2022-10-31T03:27:21.057Z,78.95
2022-10-31T03:29:55.971Z,78.82
2022-10-31T03:32:28.293Z,78.76
2022-10-31T03:35:01.426Z,79.06
2022-10-31T03:37:34.737Z,79.27
2022-10-31T03:40:09.911Z,79.06
2022-10-31T03:42:42.608Z,79.02
2022-10-31T03:45:31.460Z,79.15
2022-10-31T03:48:01.249Z,79.23
2022-10-31T03:50:41.173Z,79.28
2022-10-31T03:53:18.951Z,79.49
2022-10-31T03:56:03.531Z,79.38
2022-10-31T03:58:38.279Z,79.40
2022-10-31T04:01:08.749Z,79.28
2022-10-31T04:03:39.718Z,79.38
2022-10-31T04:06:18.971Z,79.55
2022-10-31T04:08:53.400Z,79.50
2022-10-31T04:11:25.798Z,79.70
2022-10-31T04:14:14.321Z,79.84
2022-10-31T04:16:45.807Z,79.76
2022-10-31T04:19:17.438Z,79.80
2022-10-31T04:21:46.711Z,79.80
2022-10-31T04:24:14.577Z,79.91
2022-10-31T04:26:50.341Z,79.81
2022-10-31T04:29:20.713Z,79.89
2022-10-31T04:31:48.601Z,80.06
2022-10-31T04:34:16.561Z,80.42
2022-10-31T04:36:48.992Z,80.03
2022-10-31T04:39:22.657Z,80.16
2022-10-31T04:42:16.394Z,80.23
2022-10-31T04:44:44.156Z,80.03
2022-10-31T04:47:12.036Z,79.91
2022-10-31T04:49:39.882Z,80.06
2022-10-31T04:52:12.045Z,79.94
2022-10-31T04:54:40.101Z,80.00
2022-10-31T04:57:29.375Z,79.91
2022-10-31T04:59:57.283Z,79.99
2022-10-31T05:02:30.645Z,80.34
2022-10-31T05:05:00.163Z,80.39
2022-10-31T05:07:29.493Z,80.43
2022-10-31T05:09:57.318Z,80.41
2022-10-31T05:12:25.296Z,80.39
2022-10-31T05:15:17.002Z,80.61
2022-10-31T05:18:04.459Z,80.49
2022-10-31T05:20:58.196Z,81.15
2022-10-31T05:23:32.019Z,80.99
2022-10-31T05:26:01.192Z,80.65
2022-10-31T05:28:29.195Z,80.59
2022-10-31T05:30:57.004Z,80.82
2022-10-31T05:33:24.901Z,80.80
2022-10-31T05:36:11.170Z,81.00
2022-10-31T05:39:01.898Z,80.84
2022-10-31T05:41:36.704Z,80.76
2022-10-31T05:44:14.888Z,80.92
2022-10-31T05:47:11.553Z,80.91
2022-10-31T05:50:15.097Z,80.80
2022-10-31T05:53:05.837Z,80.84
2022-10-31T05:55:42.821Z,80.93
2022-10-31T05:58:14.076Z,81.00
2022-10-31T06:00:49.246Z,80.97
2022-10-31T06:03:17.436Z,80.97
2022-10-31T06:06:11.050Z,80.76
2022-10-31T06:08:42.596Z,80.88
2022-10-31T06:11:22.290Z,80.51
2022-10-31T06:14:10.494Z,80.74
2022-10-31T06:16:46.565Z,80.65
2022-10-31T06:19:34.643Z,80.80
2022-10-31T06:22:02.423Z,80.77
2022-10-31T06:24:30.903Z,80.67
2022-10-31T06:27:09.786Z,81.04
2022-10-31T06:29:43.754Z,81.28
2022-10-31T06:32:16.300Z,80.77
2022-10-31T06:34:49.027Z,80.58
2022-10-31T06:37:17.700Z,80.63
2022-10-31T06:39:48.699Z,80.55
2022-10-31T06:42:19.335Z,80.76
2022-10-31T06:44:47.634Z,80.49
2022-10-31T06:47:38.056Z,80.90
2022-10-31T06:50:18.456Z,80.88
2022-10-31T06:52:52.400Z,80.95
2022-10-31T06:55:25.514Z,80.74
2022-10-31T06:57:57.668Z,80.62
2022-10-31T07:00:32.285Z,80.70
2022-10-31T07:03:07.888Z,80.55
2022-10-31T07:05:36.662Z,80.40
2022-10-31T07:08:06.373Z,80.36
2022-10-31T07:10:40.049Z,80.54
2022-10-31T07:13:13.921Z,80.73
2022-10-31T07:15:46.421Z,80.20
2022-10-31T07:18:14.874Z,80.29
2022-10-31T07:20:45.918Z,79.94
2022-10-31T07:23:16.779Z,80.10
2022-10-31T07:25:50.977Z,80.00
2022-10-31T07:28:26.814Z,79.85
2022-10-31T07:30:56.460Z,79.75
2022-10-31T07:33:26.679Z,79.69
2022-10-31T07:36:16.557Z,80.01
2022-10-31T07:38:46.586Z,79.85
2022-10-31T07:41:15.143Z,79.88
2022-10-31T07:46:44.786Z,80.06
2022-10-31T07:49:49.954Z,79.53
2022-10-31T07:52:28.284Z,79.39
2022-10-31T07:55:15.729Z,79.16
2022-10-31T07:57:53.270Z,79.11
2022-10-31T08:00:22.545Z,79.08
2022-10-31T08:02:59.300Z,78.88
2022-10-31T08:05:46.926Z,79.02
2022-10-31T08:08:41.051Z,78.80
2022-10-31T08:11:15.503Z,78.88
2022-10-31T08:13:44.768Z,78.62
2022-10-31T08:16:17.129Z,78.67
2022-10-31T08:19:18.265Z,78.66
2022-10-31T08:21:55.876Z,78.78
2022-10-31T08:24:25.975Z,78.23
2022-10-31T08:26:55.776Z,78.46
2022-10-31T08:29:23.597Z,78.32
2022-10-31T08:32:01.501Z,78.17
2022-10-31T08:35:04.675Z,78.45
2022-10-31T08:37:54.371Z,78.27
2022-10-31T08:40:22.425Z,77.84
2022-10-31T08:42:58.557Z,77.61
2022-10-31T08:45:30.579Z,77.63
2022-10-31T08:48:01.681Z,77.54
2022-10-31T08:50:31.496Z,77.39
2022-10-31T08:53:05.970Z,77.10
2022-10-31T08:55:36.156Z,76.87
2022-10-31T08:58:07.375Z,76.99
2022-10-31T09:00:45.922Z,77.19
2022-10-31T09:03:23.581Z,77.08
2022-10-31T09:05:59.423Z,76.89
2022-10-31T09:08:30.752Z,76.39
2022-10-31T09:10:59.202Z,75.96
2022-10-31T09:13:54.329Z,76.08
2022-10-31T09:16:40.681Z,76.13
2022-10-31T09:19:16.532Z,75.68
2022-10-31T09:21:47.392Z,76.01
2022-10-31T09:24:15.778Z,76.05
2022-10-31T09:26:44.297Z,75.82
2022-10-31T09:29:18.648Z,75.49
2022-10-31T09:31:50.301Z,75.43
2022-10-31T09:34:33.337Z,75.24
2022-10-31T09:37:10.619Z,74.98
2022-10-31T09:39:38.680Z,75.33
2022-10-31T09:42:43.741Z,75.59
2022-10-31T09:45:23.390Z,75.73
2022-10-31T09:48:08.443Z,75.73
2022-10-31T09:50:43.949Z,75.67
2022-10-31T09:53:35.175Z,75.67
2022-10-31T09:56:06.874Z,75.47
2022-10-31T09:58:39.580Z,75.62
2022-10-31T10:01:22.979Z,75.65
2022-10-31T10:04:03.456Z,75.54
2022-10-31T10:06:56.903Z,75.88
2022-10-31T10:09:45.754Z,75.40
2022-10-31T10:13:30.015Z,75.75
2022-10-31T10:16:11.384Z,75.82
2022-10-31T10:18:49.092Z,75.64
2022-10-31T10:21:34.104Z,76.16
2022-10-31T10:24:22.850Z,75.71
2022-10-31T10:27:09.764Z,75.50
2022-10-31T10:29:44.825Z,75.73
2022-10-31T10:32:19.928Z,75.48
2022-10-31T10:34:51.475Z,75.44
2022-10-31T10:37:38.711Z,75.50
2022-10-31T10:40:16.069Z,75.70
2022-10-31T10:43:04.520Z,75.55
2022-10-31T10:45:53.458Z,75.46
2022-10-31T10:48:34.180Z,75.21
2022-10-31T10:51:03.702Z,75.38
2022-10-31T10:54:03.225Z,75.00
2022-10-31T10:56:47.133Z,75.09
2022-10-31T10:59:18.831Z,74.90
2022-10-31T11:01:50.920Z,74.54
2022-10-31T11:04:29.980Z,74.20
2022-10-31T11:07:02.914Z,74.07
2022-10-31T11:09:31.142Z,74.15
2022-10-31T11:12:01.024Z,74.06
2022-10-31T11:14:29.563Z,74.36
2022-10-31T11:17:19.736Z,74.14
2022-10-31T11:19:47.584Z,74.44
2022-10-31T11:22:18.981Z,74.68
2022-10-31T11:24:47.910Z,74.44
2022-10-31T11:27:21.808Z,74.65
2022-10-31T11:29:49.665Z,74.34
2022-10-31T11:32:22.729Z,74.26
2022-10-31T11:34:54.511Z,74.38
2022-10-31T11:37:24.889Z,74.50
2022-10-31T11:39:56.084Z,74.43
2022-10-31T11:42:28.772Z,74.65
2022-10-31T11:44:58.197Z,74.39
2022-10-31T11:47:29.854Z,74.47
2022-10-31T11:49:59.651Z,74.32
2022-10-31T11:52:30.498Z,73.88
2022-10-31T11:55:01.555Z,73.29
2022-10-31T11:57:32.285Z,73.16
2022-10-31T12:00:02.161Z,73.29
2022-10-31T12:02:40.020Z,73.19
2022-10-31T12:05:13.720Z,73.26
2022-10-31T12:07:41.579Z,73.49
2022-10-31T12:10:13.476Z,73.75
2022-10-31T12:13:04.962Z,73.97
2022-10-31T12:15:35.151Z,73.41
2022-10-31T12:18:20.227Z,73.68
2022-10-31T12:20:59.882Z,73.48
2022-10-31T12:23:37.484Z,73.40
2022-10-31T12:26:17.078Z,73.87
2022-10-31T12:29:02.500Z,73.83
2022-10-31T12:31:44.507Z,73.90
2022-10-31T12:34:55.650Z,73.84
2022-10-31T12:37:41.430Z,73.83
2022-10-31T12:40:27.476Z,74.31
2022-10-31T12:43:09.598Z,73.99
2022-10-31T12:45:55.539Z,74.10
2022-10-31T12:48:40.031Z,74.10
2022-10-31T12:51:13.644Z,74.17
2022-10-31T12:53:55.151Z,74.38
2022-10-31T12:56:46.224Z,74.33
2022-10-31T12:59:21.255Z,74.27
2022-10-31T13:01:58.284Z,74.27
2022-10-31T13:04:42.774Z,74.48
2022-10-31T13:07:15.230Z,74.53
2022-10-31T13:09:49.884Z,74.83
2022-10-31T13:12:21.043Z,74.92
2022-10-31T13:14:54.271Z,74.77
2022-10-31T13:17:31.403Z,74.72
2022-10-31T13:20:14.491Z,74.68
2022-10-31T13:22:46.054Z,74.71
2022-10-31T13:25:18.389Z,74.62
2022-10-31T13:28:02.375Z,74.40
2022-10-31T13:30:34.217Z,74.15
2022-10-31T13:33:08.055Z,74.22
2022-10-31T13:35:49.648Z,74.31
2022-10-31T13:38:25.500Z,74.24
2022-10-31T13:41:00.391Z,74.18
2022-10-31T13:43:36.338Z,74.08
2022-10-31T13:46:25.643Z,74.12
2022-10-31T13:48:54.872Z,74.04
2022-10-31T13:51:29.299Z,74.09
2022-10-31T13:54:03.045Z,74.40
2022-10-31T13:56:34.019Z,74.66
2022-10-31T13:59:20.520Z,74.35
2022-10-31T14:01:51.996Z,74.79
2022-10-31T14:04:25.703Z,74.99
2022-10-31T14:06:58.156Z,75.73
2022-10-31T14:09:32.956Z,75.18
2022-10-31T14:12:04.967Z,75.24
2022-10-31T14:14:47.683Z,75.25
2022-10-31T14:17:24.369Z,75.65
2022-10-31T14:20:01.897Z,75.67
2022-10-31T14:22:38.684Z,75.52
2022-10-31T14:25:31.691Z,75.99
2022-10-31T14:28:00.917Z,76.16
2022-10-31T14:30:31.189Z,76.63
2022-10-31T14:33:01.517Z,76.83
2022-10-31T14:35:53.661Z,76.77
2022-10-31T14:38:42.910Z,77.13
2022-10-31T14:41:30.704Z,77.15
2022-10-31T14:44:45.719Z,77.48
2022-10-31T14:47:26.352Z,77.14
2022-10-31T14:50:26.478Z,77.04
2022-10-31T14:52:59.326Z,77.58
2022-10-31T14:55:28.786Z,77.67
2022-10-31T14:58:01.734Z,77.62
2022-10-31T15:00:31.435Z,77.77
2022-10-31T15:03:08.068Z,77.65
2022-10-31T15:05:42.798Z,77.37
2022-10-31T15:08:28.877Z,77.95
2022-10-31T15:10:56.925Z,78.01
2022-10-31T15:13:24.882Z,78.15
2022-10-31T15:15:56.565Z,78.45
2022-10-31T15:18:27.834Z,78.60
2022-10-31T15:20:58.656Z,78.77
2022-10-31T15:23:30.113Z,78.59
2022-10-31T15:26:02.537Z,78.52
2022-10-31T15:28:32.217Z,78.74
2022-10-31T15:31:02.279Z,78.85
2022-10-31T15:33:38.737Z,78.59
2022-10-31T15:36:08.721Z,78.82
2022-10-31T15:38:37.956Z,79.04
2022-10-31T15:41:08.260Z,79.27
2022-10-31T15:43:39.196Z,79.37
2022-10-31T15:46:11.253Z,79.21
2022-10-31T15:48:41.560Z,79.69
2022-10-31T15:51:09.600Z,78.92
2022-10-31T15:53:45.759Z,79.31
2022-10-31T15:56:21.252Z,79.50
2022-10-31T15:58:52.517Z,79.21
2022-10-31T16:01:27.737Z,79.51
2022-10-31T16:04:07.395Z,79.06
2022-10-31T16:06:44.448Z,79.47
2022-10-31T16:09:24.293Z,78.95
2022-10-31T16:11:57.086Z,78.87
2022-10-31T16:14:27.812Z,79.45
2022-10-31T16:16:58.040Z,79.54
2022-10-31T16:19:30.610Z,79.31
2022-10-31T16:22:07.075Z,79.32
2022-10-31T16:24:46.623Z,79.39
2022-10-31T16:27:24.347Z,79.35
2022-10-31T16:29:52.269Z,79.03
2022-10-31T16:32:35.209Z,79.43
2022-10-31T16:35:19.460Z,79.36
2022-10-31T16:37:47.314Z,78.90
2022-10-31T16:40:17.497Z,78.90
2022-10-31T16:42:56.147Z,79.29
2022-10-31T16:45:29.656Z,78.75
2022-10-31T16:48:05.045Z,78.89
2022-10-31T16:50:32.831Z,79.41
2022-10-31T16:53:13.259Z,79.34
2022-10-31T16:55:47.963Z,78.89
2022-10-31T16:58:20.061Z,78.72
2022-10-31T17:00:48.033Z,79.04
2022-10-31T17:03:15.845Z,78.89
2022-10-31T17:05:44.050Z,78.87
2022-10-31T17:08:12.125Z,79.35
2022-10-31T17:10:40.569Z,79.40
2022-10-31T17:13:20.726Z,79.19
2022-10-31T17:15:51.829Z,79.19
2022-10-31T17:18:24.449Z,79.54
2022-10-31T17:20:57.889Z,79.30
2022-10-31T17:23:26.247Z,79.56
2022-10-31T17:25:54.083Z,79.33
2022-10-31T17:28:23.267Z,79.43
2022-10-31T17:30:51.125Z,79.12
2022-10-31T17:33:19.165Z,79.10
2022-10-31T17:35:47.662Z,79.04
2022-10-31T17:38:15.443Z,79.49
2022-10-31T17:40:43.234Z,79.32
2022-10-31T17:43:26.308Z,79.12
2022-10-31T17:45:55.621Z,79.32
2022-10-31T17:48:23.661Z,79.11
2022-10-31T17:50:51.805Z,79.45
2022-10-31T17:53:19.651Z,79.49
2022-10-31T17:55:47.575Z,79.10
2022-10-31T17:58:24.789Z,79.11
2022-10-31T18:00:56.779Z,79.38
2022-10-31T18:03:29.364Z,78.97
2022-10-31T18:06:00.210Z,79.44
2022-10-31T18:08:28.532Z,79.05
2022-10-31T18:11:00.391Z,79.23
2022-10-31T18:13:28.792Z,79.31
2022-10-31T18:15:56.767Z,79.44
2022-10-31T18:18:32.048Z,79.39
2022-10-31T18:20:59.875Z,79.49
2022-10-31T18:23:27.728Z,79.58
2022-10-31T18:25:55.979Z,79.90
2022-10-31T18:28:23.924Z,80.05
2022-10-31T18:30:51.941Z,79.66
2022-10-31T18:33:19.890Z,80.10
2022-10-31T18:35:49.185Z,79.86
2022-10-31T18:38:16.962Z,79.61
2022-10-31T18:40:44.806Z,79.97
2022-10-31T18:43:12.592Z,79.86
2022-10-31T18:45:47.149Z,79.85
2022-10-31T18:48:18.241Z,80.01
2022-10-31T18:50:48.996Z,79.59
2022-10-31T18:53:20.097Z,79.54
2022-10-31T18:55:50.249Z,80.43
2022-10-31T18:58:18.516Z,80.09
2022-10-31T19:00:52.424Z,80.43
2022-10-31T19:03:26.159Z,80.45
2022-10-31T19:05:57.106Z,80.60
2022-10-31T19:08:29.465Z,80.45
2022-10-31T19:10:57.229Z,80.67
2022-10-31T19:13:24.967Z,80.79
2022-10-31T19:15:52.748Z,80.98
2022-10-31T19:18:20.647Z,80.74
2022-10-31T19:20:48.528Z,80.94
2022-10-31T19:23:17.464Z,81.14
2022-10-31T19:25:59.360Z,81.12
2022-10-31T19:28:27.554Z,81.38
2022-10-31T19:30:55.614Z,81.43
2022-10-31T19:33:23.494Z,81.79
2022-10-31T19:35:51.274Z,81.86
2022-10-31T19:38:19.058Z,82.00
2022-10-31T19:40:47.802Z,81.86
2022-10-31T19:43:20.207Z,82.28
2022-10-31T19:45:57.324Z,81.97
2022-10-31T19:48:25.734Z,82.48
2022-10-31T19:50:58.532Z,82.50
2022-10-31T19:53:31.956Z,82.40
2022-10-31T19:56:00.811Z,82.27
2022-10-31T19:58:33.257Z,82.28
2022-10-31T20:01:06.951Z,82.32
2022-10-31T20:03:34.867Z,82.23
2022-10-31T20:06:07.291Z,82.42
2022-10-31T20:08:39.476Z,82.11
2022-10-31T20:11:07.743Z,82.39
2022-10-31T20:13:38.064Z,81.85
2022-10-31T20:16:08.773Z,82.31
2022-10-31T20:18:37.659Z,82.47
2022-10-31T20:21:07.565Z,82.31
2022-10-31T20:23:36.391Z,82.38
2022-10-31T20:26:05.099Z,82.30
2022-10-31T20:28:40.036Z,82.39
2022-10-31T20:31:10.752Z,82.82
2022-10-31T20:33:42.078Z,82.40
2022-10-31T20:36:11.453Z,82.75
2022-10-31T20:38:39.982Z,82.36
2022-10-31T20:41:10.956Z,82.55
2022-10-31T20:43:42.940Z,82.74
2022-10-31T20:46:13.201Z,82.73
2022-10-31T20:48:41.279Z,82.65
2022-10-31T20:51:13.718Z,82.70
2022-10-31T20:53:41.572Z,82.97
2022-10-31T20:56:11.604Z,82.68
2022-10-31T20:58:42.427Z,82.95
2022-10-31T21:01:14.814Z,82.87
2022-10-31T21:03:43.386Z,83.05
2022-10-31T21:06:12.126Z,82.80
2022-10-31T21:08:40.656Z,83.31
2022-10-31T21:11:13.760Z,83.13
2022-10-31T21:13:47.747Z,83.13
2022-10-31T21:16:20.477Z,83.21
2022-10-31T21:18:49.820Z,82.79
2022-10-31T21:21:24.121Z,83.06
2022-10-31T21:23:56.379Z,83.09
2022-10-31T21:26:30.064Z,82.71
2022-10-31T21:29:01.943Z,83.13
2022-10-31T21:31:30.263Z,83.30
2022-10-31T21:33:58.086Z,83.48
2022-10-31T21:36:26.678Z,83.42
2022-10-31T21:38:55.905Z,83.29
2022-10-31T21:41:24.701Z,83.54
2022-10-31T21:43:55.174Z,83.35
2022-10-31T21:46:26.218Z,83.51
2022-10-31T21:48:54.376Z,83.39
2022-10-31T21:51:23.904Z,83.72
2022-10-31T21:54:09.906Z,83.80
2022-10-31T21:56:38.285Z,83.90
2022-10-31T21:59:06.367Z,83.77
2022-10-31T22:01:38.443Z,83.77
2022-10-31T22:04:12.455Z,83.84
2022-10-31T22:06:42.539Z,83.84
2022-10-31T22:09:19.690Z,83.76
2022-10-31T22:11:48.250Z,84.22
2022-10-31T22:14:16.659Z,84.43
2022-10-31T22:16:46.029Z,84.43
2022-10-31T22:19:16.679Z,84.42
2022-10-31T22:21:47.440Z,84.56
2022-10-31T22:24:16.505Z,84.53
2022-10-31T22:26:45.932Z,84.36
2022-10-31T22:29:15.601Z,84.70
2022-10-31T22:31:57.246Z,84.64
2022-10-31T22:34:28.765Z,84.77
2022-10-31T22:36:56.849Z,84.67
2022-10-31T22:39:24.703Z,84.58
2022-10-31T22:41:52.449Z,84.61
2022-10-31T22:44:20.848Z,84.61
2022-10-31T22:46:52.354Z,84.77
2022-10-31T22:49:20.089Z,84.54
2022-10-31T22:51:51.556Z,84.62
2022-10-31T22:54:20.179Z,84.44
2022-10-31T22:56:50.758Z,84.52
2022-10-31T22:59:19.095Z,84.68
2022-10-31T23:01:46.939Z,84.77
2022-10-31T23:04:17.232Z,84.80
2022-10-31T23:06:51.000Z,84.61
2022-10-31T23:09:18.951Z,84.83
2022-10-31T23:11:49.896Z,84.75
2022-10-31T23:14:21.143Z,84.59
2022-10-31T23:16:57.447Z,84.67
2022-10-31T23:19:28.422Z,84.78
2022-10-31T23:21:59.774Z,84.99
2022-10-31T23:24:36.575Z,84.65
2022-10-31T23:27:06.679Z,84.80
2022-10-31T23:29:39.375Z,84.77
2022-10-31T23:32:10.759Z,84.63
2022-10-31T23:34:39.918Z,84.52
2022-10-31T23:37:15.286Z,84.65
2022-10-31T23:39:43.525Z,84.67
2022-10-31T23:42:11.657Z,84.32
2022-10-31T23:44:39.374Z,84.38
2022-10-31T23:47:07.886Z,84.46
2022-10-31T23:49:35.987Z,84.34
2022-10-31T23:52:06.056Z,84.59
2022-10-31T23:54:34.188Z,84.38
2022-10-31T23:57:02.731Z,85.04
2022-10-31T23:59:31.116Z,85.16
